^^
Your Local Weather - Clay, NY Station Historical Data
Daily Summary for August 10, 2017 Units:  English    Metric   Both
« Previous Day
Next Day »
Daily Weekly Monthly Yearly Custom
  High: Low: Average:
Temperature: 80.8 °F 57.4 °F 68.9 °F
Dew Point: 67.4 °F 55.7 °F 60.6 °F
Humidity: 95% 49% 77%
Wind Speed: 3.0mph 0.0mph 0.4mph
Wind Gust: 7.0mph - -
Wind- - ESE
Pressure: 30.18 in 30.07 in -
Precipitation: 0.00 in    
Historical Graphs
 
 
Tabular Data for August 10, 2017
Time Temperature Dew Point Pressure Wind Wind Speed Wind Gust Humidity Rainfall Rate (Hourly) solar
00:02 62.1 °F 59.4 °F 30.15 in Calm     91% 0.00 in 0 W/m2
00:08 61.9 °F 59.2 °F 30.15 in Calm     91% 0.00 in 0 W/m2
00:14 61.8 °F 59.1 °F 30.15 in Calm     91% 0.00 in 0 W/m2
00:20 61.8 °F 59.1 °F 30.15 in Calm     91% 0.00 in 0 W/m2
00:26 61.7 °F 59.0 °F 30.15 in Calm     91% 0.00 in 0 W/m2
00:32 61.6 °F 58.9 °F 30.15 in Calm     91% 0.00 in 0 W/m2
00:38 61.5 °F 58.8 °F 30.15 in Calm     91% 0.00 in 0 W/m2
00:44 61.4 °F 58.7 °F 30.15 in Calm     91% 0.00 in 0 W/m2
00:50 61.3 °F 58.7 °F 30.15 in Calm     91% 0.00 in 0 W/m2
00:56 61.3 °F 59.0 °F 30.15 in Calm     92% 0.00 in 0 W/m2
01:02 61.3 °F 59.0 °F 30.15 in Calm     92% 0.00 in 0 W/m2
01:08 61.0 °F 58.7 °F 30.15 in Calm     92% 0.00 in 0 W/m2
01:14 61.0 °F 58.7 °F 30.15 in Calm     92% 0.00 in 0 W/m2
01:20 61.2 °F 58.9 °F 30.15 in Calm     92% 0.00 in 0 W/m2
01:26 61.3 °F 59.0 °F 30.15 in Calm     92% 0.00 in 0 W/m2
01:32 61.3 °F 59.0 °F 30.15 in Calm     92% 0.00 in 0 W/m2
01:38 61.3 °F 59.0 °F 30.15 in Calm     92% 0.00 in 0 W/m2
01:44 61.5 °F 59.5 °F 30.15 in Calm     93% 0.00 in 0 W/m2
01:50 61.5 °F 59.5 °F 30.15 in Calm     93% 0.00 in 0 W/m2
01:56 61.3 °F 59.3 °F 30.15 in Calm     93% 0.00 in 0 W/m2
02:02 61.1 °F 58.8 °F 30.15 in Calm     92% 0.00 in 0 W/m2
02:08 61.0 °F 59.0 °F 30.15 in Calm     93% 0.00 in 0 W/m2
02:14 60.8 °F 58.8 °F 30.15 in Calm     93% 0.00 in 0 W/m2
02:20 60.6 °F 58.6 °F 30.15 in Calm     93% 0.00 in 0 W/m2
02:26 60.5 °F 58.5 °F 30.15 in Calm     93% 0.00 in 0 W/m2
02:32 60.4 °F 58.4 °F 30.15 in Calm     93% 0.00 in 0 W/m2
02:38 60.2 °F 58.2 °F 30.15 in Calm     93% 0.00 in 0 W/m2
02:44 60.1 °F 58.1 °F 30.15 in Calm     93% 0.00 in 0 W/m2
02:50 59.9 °F 57.9 °F 30.15 in Calm     93% 0.00 in 0 W/m2
02:56 59.7 °F 57.7 °F 30.15 in Calm     93% 0.00 in 0 W/m2
03:02 59.6 °F 57.6 °F 30.15 in Calm     93% 0.00 in 0 W/m2
03:08 59.5 °F 57.5 °F 30.15 in Calm     93% 0.00 in 0 W/m2
03:14 59.5 °F 57.5 °F 30.15 in Calm     93% 0.00 in 0 W/m2
03:20 59.4 °F 57.4 °F 30.15 in Calm     93% 0.00 in 0 W/m2
03:26 59.1 °F 57.1 °F 30.15 in Calm     93% 0.00 in 0 W/m2
03:32 59.1 °F 57.1 °F 30.15 in Calm     93% 0.00 in 0 W/m2
03:38 58.8 °F 56.8 °F 30.15 in Calm     93% 0.00 in 0 W/m2
03:44 58.8 °F 56.8 °F 30.15 in Calm     93% 0.00 in 0 W/m2
03:50 58.8 °F 56.8 °F 30.15 in Calm     93% 0.00 in 0 W/m2
03:56 58.7 °F 56.7 °F 30.15 in Calm     93% 0.00 in 0 W/m2
04:02 58.8 °F 56.8 °F 30.15 in Calm     93% 0.00 in 0 W/m2
04:08 58.7 °F 56.7 °F 30.15 in Calm     93% 0.00 in 0 W/m2
04:14 58.6 °F 56.6 °F 30.15 in Calm     93% 0.00 in 0 W/m2
04:20 58.4 °F 56.4 °F 30.15 in Calm     93% 0.00 in 0 W/m2
04:26 58.4 °F 56.7 °F 30.15 in Calm     94% 0.00 in 0 W/m2
04:32 58.2 °F 56.2 °F 30.15 in Calm     93% 0.00 in 0 W/m2
04:38 58.0 °F 56.0 °F 30.15 in Calm     93% 0.00 in 0 W/m2
04:44 57.8 °F 55.8 °F 30.15 in Calm     93% 0.00 in 0 W/m2
04:50 57.7 °F 55.7 °F 30.15 in Calm     93% 0.00 in 0 W/m2
04:56 57.7 °F 55.7 °F 30.15 in Calm     93% 0.00 in 0 W/m2
05:02 57.8 °F 56.1 °F 30.15 in Calm     94% 0.00 in 0 W/m2
05:08 57.8 °F 56.1 °F 30.15 in Calm     94% 0.00 in 0 W/m2
05:14 57.7 °F 56.0 °F 30.15 in Calm     94% 0.00 in 0 W/m2
05:20 57.6 °F 55.9 °F 30.16 in Calm     94% 0.00 in 0 W/m2
05:26 57.6 °F 55.9 °F 30.16 in Calm     94% 0.00 in 0 W/m2
05:32 57.5 °F 55.8 °F 30.16 in Calm     94% 0.00 in 0 W/m2
05:38 57.5 °F 55.8 °F 30.16 in Calm     94% 0.00 in 0 W/m2
05:44 57.8 °F 56.1 °F 30.16 in Calm     94% 0.00 in 0 W/m2
05:50 57.7 °F 56.0 °F 30.16 in Calm     94% 0.00 in 0 W/m2
05:56 57.5 °F 55.8 °F 30.16 in Calm     94% 0.00 in 0 W/m2
06:02 57.4 °F 55.7 °F 30.16 in Calm     94% 0.00 in 0 W/m2
06:08 57.4 °F 55.7 °F 30.16 in Calm     94% 0.00 in 5 W/m2
06:14 57.5 °F 55.8 °F 30.16 in Calm     94% 0.00 in 9 W/m2
06:20 57.7 °F 56.0 °F 30.16 in Calm     94% 0.00 in 14 W/m2
06:26 57.7 °F 56.0 °F 30.16 in Calm     94% 0.00 in 16 W/m2
06:32 57.7 °F 56.0 °F 30.16 in Calm     94% 0.00 in 21 W/m2
06:38 57.9 °F 56.2 °F 30.16 in Calm     94% 0.00 in 28 W/m2
06:44 58.2 °F 56.5 °F 30.16 in Calm     94% 0.00 in 37 W/m2
06:50 58.3 °F 56.6 °F 30.16 in Calm     94% 0.00 in 46 W/m2
06:56 58.6 °F 56.9 °F 30.16 in Calm     94% 0.00 in 72 W/m2
07:02 59.1 °F 57.4 °F 30.16 in Calm     94% 0.00 in 58 W/m2
07:08 59.6 °F 57.9 °F 30.16 in Calm     94% 0.00 in 120 W/m2
07:14 59.9 °F 58.5 °F 30.16 in Calm     95% 0.00 in 128 W/m2
07:20 60.3 °F 58.6 °F 30.17 in Calm     94% 0.00 in 142 W/m2
07:26 60.7 °F 59.3 °F 30.17 in Calm     95% 0.00 in 123 W/m2
07:32 60.7 °F 59.0 °F 30.17 in Calm     94% 0.00 in 95 W/m2
07:38 60.9 °F 59.2 °F 30.17 in Calm   1.0 mph 94% 0.00 in 149 W/m2
07:44 61.4 °F 59.7 °F 30.17 in Calm     94% 0.00 in 151 W/m2
07:50 61.8 °F 60.4 °F 30.17 in Calm   1.0 mph 95% 0.00 in 221 W/m2
07:56 62.4 °F 60.7 °F 30.18 in Calm   1.0 mph 94% 0.00 in 139 W/m2
08:02 63.4 °F 61.6 °F 30.18 in Calm     94% 0.00 in 192 W/m2
08:08 63.7 °F 61.9 °F 30.18 in Calm     94% 0.00 in 253 W/m2
08:14 64.2 °F 62.1 °F 30.18 in Calm     93% 0.00 in 283 W/m2
08:20 64.8 °F 62.1 °F 30.18 in ENE 1.0 mph 2.0 mph 91% 0.00 in 146 W/m2
08:26 65.3 °F 62.0 °F 30.18 in ENE 1.0 mph 2.0 mph 89% 0.00 in 104 W/m2
08:32 65.8 °F 62.1 °F 30.18 in Calm     88% 0.00 in 162 W/m2
08:38 66.1 °F 62.1 °F 30.18 in Calm     87% 0.00 in 132 W/m2
08:44 66.4 °F 61.8 °F 30.18 in Calm   1.0 mph 85% 0.00 in 373 W/m2
08:50 67.1 °F 62.4 °F 30.18 in Calm     85% 0.00 in 257 W/m2
08:56 67.7 °F 62.0 °F 30.17 in SE 1.0 mph 2.0 mph 82% 0.00 in 413 W/m2
09:02 68.1 °F 62.0 °F 30.17 in ESE 1.0 mph 1.0 mph 81% 0.00 in 151 W/m2
09:08 68.5 °F 62.1 °F 30.17 in SE 1.0 mph 2.0 mph 80% 0.00 in 457 W/m2
09:14 68.7 °F 61.9 °F 30.17 in SE 1.0 mph 1.0 mph 79% 0.00 in 471 W/m2
09:20 69.4 °F 61.9 °F 30.17 in Calm   1.0 mph 77% 0.00 in 490 W/m2
09:26 70.2 °F 62.6 °F 30.17 in East 1.0 mph 2.0 mph 77% 0.00 in 425 W/m2
09:32 70.6 °F 63.0 °F 30.17 in Calm   1.0 mph 77% 0.00 in 478 W/m2
09:38 71.4 °F 62.3 °F 30.17 in Calm   2.0 mph 73% 0.00 in 540 W/m2
09:44 71.6 °F 62.9 °F 30.17 in SE 1.0 mph 1.0 mph 74% 0.00 in 559 W/m2
09:50 72.1 °F 63.0 °F 30.17 in Calm     73% 0.00 in 582 W/m2
09:56 73.1 °F 62.3 °F 30.17 in Calm   1.0 mph 69% 0.00 in 594 W/m2
10:02 72.6 °F 62.3 °F 30.17 in Calm     70% 0.00 in 608 W/m2
10:08 73.9 °F 62.7 °F 30.17 in Calm   1.0 mph 68% 0.00 in 628 W/m2
10:14 73.9 °F 62.7 °F 30.17 in SSE 1.0 mph 2.0 mph 68% 0.00 in 647 W/m2
10:20 74.4 °F 63.1 °F 30.17 in Calm     68% 0.00 in 680 W/m2
10:26 74.8 °F 63.1 °F 30.17 in Calm     67% 0.00 in 589 W/m2
10:32 75.1 °F 62.1 °F 30.17 in Calm     64% 0.00 in 738 W/m2
10:38 76.0 °F 62.9 °F 30.17 in Calm     64% 0.00 in 698 W/m2
10:44 76.7 °F 62.7 °F 30.16 in Calm   3.0 mph 62% 0.00 in 735 W/m2
10:50 76.4 °F 62.9 °F 30.16 in SE 1.0 mph 1.0 mph 63% 0.00 in 731 W/m2
10:56 76.6 °F 61.2 °F 30.16 in East 1.0 mph 2.0 mph 59% 0.00 in 722 W/m2
11:02 77.4 °F 61.0 °F 30.16 in East 1.0 mph 1.0 mph 57% 0.00 in 765 W/m2
11:08 77.5 °F 61.1 °F 30.16 in ENE 1.0 mph 3.0 mph 57% 0.00 in 786 W/m2
11:14 77.5 °F 61.6 °F 30.16 in SE 1.0 mph 2.0 mph 58% 0.00 in 766 W/m2
11:20 77.1 °F 61.2 °F 30.16 in SE 1.0 mph 1.0 mph 58% 0.00 in 749 W/m2
11:26 78.0 °F 62.0 °F 30.16 in Calm   1.0 mph 58% 0.00 in 749 W/m2
11:32 79.8 °F 64.2 °F 30.16 in Calm     59% 0.00 in 884 W/m2
11:38 78.5 °F 64.4 °F 30.16 in NNW 1.0 mph 3.0 mph 62% 0.00 in 689 W/m2
11:44 79.4 °F 62.3 °F 30.16 in ESE 1.0 mph 3.0 mph 56% 0.00 in 710 W/m2
11:50 79.0 °F 62.5 °F 30.16 in SE 1.0 mph 3.0 mph 57% 0.00 in 870 W/m2
11:56 78.8 °F 64.2 °F 30.16 in SE 1.0 mph 3.0 mph 61% 0.00 in 881 W/m2
12:02 80.2 °F 64.6 °F 30.16 in Calm   1.0 mph 59% 0.00 in 728 W/m2
12:08 80.0 °F 61.9 °F 30.15 in NNW 1.0 mph 2.0 mph 54% 0.00 in 334 W/m2
12:14 80.8 °F 66.6 °F 30.15 in Calm   1.0 mph 62% 0.00 in 689 W/m2
12:20 80.0 °F 61.9 °F 30.15 in Calm     54% 0.00 in 246 W/m2
12:26 79.1 °F 63.1 °F 30.15 in NNE 1.0 mph 3.0 mph 58% 0.00 in 485 W/m2
12:32 79.1 °F 62.1 °F 30.15 in NE 1.0 mph 4.0 mph 56% 0.00 in 283 W/m2
12:38 79.2 °F 62.1 °F 30.15 in NE 2.0 mph 4.0 mph 56% 0.00 in 225 W/m2
12:44 79.5 °F 66.3 °F 30.14 in NE 1.0 mph 2.0 mph 64% 0.00 in 925 W/m2
12:50 80.8 °F 64.1 °F 30.14 in North 1.0 mph 5.0 mph 57% 0.00 in 930 W/m2
12:56 79.3 °F 64.7 °F 30.14 in East 2.0 mph 5.0 mph 61% 0.00 in 214 W/m2
13:02 80.1 °F 64.0 °F 30.14 in NNW 1.0 mph 2.0 mph 58% 0.00 in 833 W/m2
13:08 79.4 °F 63.3 °F 30.13 in East 1.0 mph 2.0 mph 58% 0.00 in 227 W/m2
13:14 78.7 °F 63.2 °F 30.13 in East 1.0 mph 1.0 mph 59% 0.00 in 144 W/m2
13:20 78.3 °F 65.1 °F 30.13 in Calm     64% 0.00 in 141 W/m2
13:26 77.9 °F 62.9 °F 30.13 in Calm     60% 0.00 in 102 W/m2
13:32 77.6 °F 65.3 °F 30.13 in Calm     66% 0.00 in 109 W/m2
13:38 77.4 °F 65.6 °F 30.13 in Calm   1.0 mph 67% 0.00 in 206 W/m2
13:44 78.0 °F 67.4 °F 30.13 in Calm   2.0 mph 70% 0.00 in 893 W/m2
13:50 78.6 °F 65.4 °F 30.13 in ENE 2.0 mph 5.0 mph 64% 0.00 in 529 W/m2
13:56 79.0 °F 63.9 °F 30.13 in NNE 2.0 mph 5.0 mph 60% 0.00 in 350 W/m2
14:02 78.4 °F 63.8 °F 30.13 in ENE 2.0 mph 3.0 mph 61% 0.00 in 570 W/m2
14:08 78.0 °F 63.9 °F 30.13 in NE 2.0 mph 3.0 mph 62% 0.00 in 269 W/m2
14:14 77.6 °F 63.5 °F 30.13 in ENE 2.0 mph 5.0 mph 62% 0.00 in 269 W/m2
14:20 78.2 °F 63.6 °F 30.13 in East 1.0 mph 3.0 mph 61% 0.00 in 290 W/m2
14:26 79.6 °F 63.0 °F 30.13 in ENE 1.0 mph 3.0 mph 57% 0.00 in 816 W/m2
14:32 79.7 °F 61.1 °F 30.12 in ENE 2.0 mph 2.0 mph 53% 0.00 in 812 W/m2
14:38 80.4 °F 64.3 °F 30.12 in NE 1.0 mph 2.0 mph 58% 0.00 in 626 W/m2
14:44 80.5 °F 62.8 °F 30.12 in ENE 1.0 mph 2.0 mph 55% 0.00 in 478 W/m2
14:50 80.1 °F 62.5 °F 30.12 in NE 2.0 mph 2.0 mph 55% 0.00 in 789 W/m2
14:56 80.0 °F 61.9 °F 30.11 in East 2.0 mph 5.0 mph 54% 0.00 in 446 W/m2
15:02 80.8 °F 63.6 °F 30.11 in SSE 2.0 mph 3.0 mph 56% 0.00 in 846 W/m2
15:08 80.5 °F 63.9 °F 30.11 in North 3.0 mph 5.0 mph 57% 0.00 in 809 W/m2
15:14 80.0 °F 62.4 °F 30.11 in NNE 3.0 mph 7.0 mph 55% 0.00 in 322 W/m2
15:20 79.3 °F 62.2 °F 30.11 in North 3.0 mph 3.0 mph 56% 0.00 in 355 W/m2
15:26 79.2 °F 62.7 °F 30.11 in East 2.0 mph 3.0 mph 57% 0.00 in 475 W/m2
15:32 79.3 °F 63.2 °F 30.11 in NNE 3.0 mph 3.0 mph 58% 0.00 in 480 W/m2
15:38 78.6 °F 62.6 °F 30.11 in NE 2.0 mph 3.0 mph 58% 0.00 in 339 W/m2
15:44 78.6 °F 62.1 °F 30.11 in NE 2.0 mph 3.0 mph 57% 0.00 in 288 W/m2
15:50 79.1 °F 61.5 °F 30.11 in NE 2.0 mph 2.0 mph 55% 0.00 in 399 W/m2
15:56 79.1 °F 62.1 °F 30.10 in North 2.0 mph 4.0 mph 56% 0.00 in 311 W/m2
16:02 79.0 °F 62.0 °F 30.11 in NNE 2.0 mph 2.0 mph 56% 0.00 in 176 W/m2
16:08 78.5 °F 62.0 °F 30.11 in NNE 1.0 mph 2.0 mph 57% 0.00 in 186 W/m2
16:14 78.1 °F 61.1 °F 30.11 in Calm   2.0 mph 56% 0.00 in 267 W/m2
16:20 78.2 °F 62.2 °F 30.10 in NW 1.0 mph 1.0 mph 58% 0.00 in 188 W/m2
16:26 78.0 °F 62.0 °F 30.10 in NW 1.0 mph 1.0 mph 58% 0.00 in 134 W/m2
16:32 77.8 °F 63.3 °F 30.10 in Calm   1.0 mph 61% 0.00 in 155 W/m2
16:38 77.7 °F 63.2 °F 30.10 in Calm   1.0 mph 61% 0.00 in 230 W/m2
16:44 78.3 °F 62.3 °F 30.10 in NE 1.0 mph 2.0 mph 58% 0.00 in 459 W/m2
16:50 78.6 °F 61.6 °F 30.10 in East 1.0 mph 1.0 mph 56% 0.00 in 192 W/m2
16:56 78.6 °F 62.1 °F 30.10 in East 1.0 mph 2.0 mph 57% 0.00 in 232 W/m2
17:02 78.4 °F 62.4 °F 30.09 in Calm     58% 0.00 in 174 W/m2
17:08 78.3 °F 61.8 °F 30.09 in East 1.0 mph 2.0 mph 57% 0.00 in 146 W/m2
17:14 78.2 °F 62.7 °F 30.10 in Calm   1.0 mph 59% 0.00 in 185 W/m2
17:20 78.1 °F 64.9 °F 30.09 in Calm     64% 0.00 in 211 W/m2
17:26 78.2 °F 64.1 °F 30.09 in Calm   1.0 mph 62% 0.00 in 213 W/m2
17:32 78.2 °F 65.5 °F 30.09 in Calm     65% 0.00 in 190 W/m2
17:38 78.1 °F 64.5 °F 30.09 in Calm     63% 0.00 in 199 W/m2
17:44 78.4 °F 64.8 °F 30.08 in Calm     63% 0.00 in 223 W/m2
17:50 78.6 °F 64.5 °F 30.08 in Calm   1.0 mph 62% 0.00 in 214 W/m2
17:56 78.7 °F 63.2 °F 30.08 in Calm   2.0 mph 59% 0.00 in 190 W/m2
18:02 78.9 °F 63.4 °F 30.08 in NE 1.0 mph 2.0 mph 59% 0.00 in 192 W/m2
18:08 79.0 °F 62.5 °F 30.08 in NE 1.0 mph 2.0 mph 57% 0.00 in 162 W/m2
18:14 79.2 °F 64.6 °F 30.08 in NE 1.0 mph 1.0 mph 61% 0.00 in 120 W/m2
18:20 79.0 °F 62.5 °F 30.08 in NE 1.0 mph 1.0 mph 57% 0.00 in 97 W/m2
18:26 79.1 °F 62.6 °F 30.08 in Calm   1.0 mph 57% 0.00 in 69 W/m2
18:32 78.7 °F 65.5 °F 30.08 in Calm     64% 0.00 in 56 W/m2
18:38 77.6 °F 61.7 °F 30.08 in Calm     58% 0.00 in 63 W/m2
18:44 77.4 °F 64.3 °F 30.08 in Calm     64% 0.00 in 62 W/m2
18:50 77.2 °F 61.8 °F 30.08 in Calm     59% 0.00 in 67 W/m2
18:56 77.8 °F 62.8 °F 30.08 in Calm     60% 0.00 in 65 W/m2
19:02 78.0 °F 62.5 °F 30.08 in Calm     59% 0.00 in 56 W/m2
19:08 78.1 °F 60.6 °F 30.08 in Calm     55% 0.00 in 53 W/m2
19:16 77.8 °F 64.2 °F 30.08 in Calm     63% 0.00 in 44 W/m2
19:22 77.4 °F 58.4 °F 30.08 in WSW 1.0 mph 2.0 mph 52% 0.00 in 35 W/m2
19:28 77.6 °F 58.6 °F 30.08 in SSW 2.0 mph 3.0 mph 52% 0.00 in 30 W/m2
19:34 77.5 °F 56.8 °F 30.08 in SSW 2.0 mph 2.0 mph 49% 0.00 in 23 W/m2
19:40 75.5 °F 63.8 °F 30.07 in Calm     67% 0.00 in 18 W/m2
19:46 73.7 °F 63.7 °F 30.07 in Calm     71% 0.00 in 14 W/m2
19:52 72.3 °F 63.5 °F 30.07 in Calm     74% 0.00 in 11 W/m2
19:58 71.4 °F 63.1 °F 30.07 in Calm     75% 0.00 in 7 W/m2
20:04 70.7 °F 62.0 °F 30.07 in Calm     74% 0.00 in 5 W/m2
20:10 70.2 °F 61.9 °F 30.07 in Calm     75% 0.00 in 0 W/m2
20:16 70.0 °F 62.5 °F 30.07 in Calm     77% 0.00 in 0 W/m2
20:22 69.4 °F 62.2 °F 30.07 in Calm     78% 0.00 in 0 W/m2
20:28 68.9 °F 61.8 °F 30.07 in Calm     78% 0.00 in 0 W/m2
20:34 68.2 °F 60.7 °F 30.07 in Calm     77% 0.00 in 0 W/m2
20:40 67.7 °F 60.6 °F 30.07 in Calm     78% 0.00 in 0 W/m2
20:46 67.3 °F 59.5 °F 30.07 in Calm     76% 0.00 in 0 W/m2
20:54 66.9 °F 59.5 °F 30.07 in Calm     77% 0.00 in 0 W/m2
21:00 66.7 °F 59.6 °F 30.07 in Calm     78% 0.00 in 0 W/m2
21:06 66.5 °F 59.4 °F 30.08 in Calm     78% 0.00 in 0 W/m2
21:12 66.1 °F 59.7 °F 30.08 in Calm     80% 0.00 in 0 W/m2
21:18 65.9 °F 59.6 °F 30.08 in Calm     80% 0.00 in 0 W/m2
21:24 65.7 °F 59.4 °F 30.08 in Calm     80% 0.00 in 0 W/m2
21:30 65.4 °F 59.1 °F 30.08 in Calm     80% 0.00 in 0 W/m2
21:36 65.2 °F 58.9 °F 30.08 in Calm     80% 0.00 in 0 W/m2
21:42 65.0 °F 59.0 °F 30.08 in Calm     81% 0.00 in 0 W/m2
21:48 64.7 °F 59.1 °F 30.08 in Calm     82% 0.00 in 0 W/m2
21:54 64.6 °F 59.3 °F 30.08 in Calm     83% 0.00 in 0 W/m2
22:00 64.5 °F 59.9 °F 30.08 in Calm     85% 0.00 in 0 W/m2
22:06 64.2 °F 59.6 °F 30.08 in Calm     85% 0.00 in 0 W/m2
22:12 64.0 °F 59.4 °F 30.08 in Calm     85% 0.00 in 0 W/m2
22:18 63.8 °F 59.5 °F 30.08 in Calm     86% 0.00 in 0 W/m2
22:24 63.7 °F 59.4 °F 30.08 in Calm     86% 0.00 in 0 W/m2
22:30 63.5 °F 59.6 °F 30.08 in Calm     87% 0.00 in 0 W/m2
22:36 63.5 °F 59.6 °F 30.08 in Calm     87% 0.00 in 0 W/m2
22:42 63.4 °F 59.5 °F 30.08 in Calm     87% 0.00 in 0 W/m2
22:48 63.3 °F 59.7 °F 30.08 in Calm     88% 0.00 in 0 W/m2
22:54 63.2 °F 59.3 °F 30.08 in Calm     87% 0.00 in 0 W/m2
23:00 63.1 °F 59.2 °F 30.08 in Calm     87% 0.00 in 0 W/m2
23:06 63.0 °F 59.1 °F 30.08 in Calm     87% 0.00 in 0 W/m2
23:14 62.8 °F 58.9 °F 30.08 in Calm     87% 0.00 in 0 W/m2
23:20 62.7 °F 59.1 °F 30.08 in Calm     88% 0.00 in 0 W/m2
23:24 62.5 °F 58.9 °F 30.08 in Calm     88% 0.00 in 0 W/m2
23:30 62.3 °F 58.7 °F 30.08 in Calm     88% 0.00 in 0 W/m2
23:36 62.1 °F 58.5 °F 30.08 in Calm     88% 0.00 in 0 W/m2
23:42 62.0 °F 58.4 °F 30.08 in Calm     88% 0.00 in 0 W/m2
23:48 62.0 °F 58.7 °F 30.08 in Calm     89% 0.00 in 0 W/m2
23:54 62.0 °F 58.7 °F 30.08 in Calm     89% 0.00 in 0 W/m2
Country Meadow, Clay, NY, USA
Compliments of Weather Underground - 2 mb